createdAt,value
2022-12-06T00:00:34.259Z,22.01
2022-12-06T00:02:35.635Z,22.09
2022-12-06T00:04:36.973Z,22.48
2022-12-06T00:06:38.308Z,22.40
2022-12-06T00:08:39.584Z,22.36
2022-12-06T00:10:40.925Z,22.32
2022-12-06T00:12:42.251Z,22.23
2022-12-06T00:14:43.556Z,21.94
2022-12-06T00:16:44.879Z,22.04
2022-12-06T00:18:46.279Z,22.17
2022-12-06T00:20:47.550Z,22.31
2022-12-06T00:22:48.843Z,22.40
2022-12-06T00:24:50.116Z,22.64
2022-12-06T00:26:51.417Z,22.46
2022-12-06T00:28:52.696Z,22.38
2022-12-06T00:30:53.984Z,22.33
2022-12-06T00:32:55.273Z,22.34
2022-12-06T00:34:56.553Z,22.38
2022-12-06T00:36:57.880Z,21.69
2022-12-06T00:38:59.156Z,21.53
2022-12-06T00:41:00.453Z,21.76
2022-12-06T00:43:01.727Z,21.96
2022-12-06T00:45:03.027Z,21.99
2022-12-06T00:47:04.337Z,22.00
2022-12-06T00:49:05.703Z,22.24
2022-12-06T00:51:07.024Z,22.64
2022-12-06T00:53:08.352Z,22.43
2022-12-06T00:55:09.636Z,22.17
2022-12-06T00:57:10.919Z,22.04
2022-12-06T00:59:12.229Z,21.97
2022-12-06T01:01:13.614Z,22.69
2022-12-06T01:03:14.993Z,22.98
2022-12-06T01:05:16.336Z,23.11
2022-12-06T01:07:17.673Z,20.00
2022-12-06T01:09:18.952Z,18.96
2022-12-06T01:11:20.243Z,19.86
2022-12-06T01:13:21.524Z,20.38
2022-12-06T01:15:22.805Z,20.68
2022-12-06T01:17:24.147Z,20.84
2022-12-06T01:19:25.471Z,20.97
2022-12-06T01:21:26.757Z,21.10
2022-12-06T01:23:28.193Z,21.19
2022-12-06T01:25:35.810Z,21.29
2022-12-06T01:27:37.788Z,21.39
2022-12-06T01:29:39.091Z,21.45
2022-12-06T01:31:40.423Z,21.51
2022-12-06T01:33:42.644Z,21.54
2022-12-06T01:35:44.674Z,21.60
2022-12-06T01:37:46.023Z,21.63
2022-12-06T01:39:47.331Z,21.68
2022-12-06T01:41:48.604Z,21.69
2022-12-06T01:43:49.889Z,21.68
2022-12-06T01:45:51.718Z,21.69
2022-12-06T01:47:53.036Z,21.69
2022-12-06T01:49:54.360Z,21.69
2022-12-06T01:51:55.653Z,21.68
2022-12-06T01:53:56.939Z,21.68
2022-12-06T01:55:58.567Z,21.67
2022-12-06T01:57:59.872Z,21.67
2022-12-06T02:00:01.459Z,21.61
2022-12-06T02:02:03.119Z,21.52
2022-12-06T02:04:04.515Z,21.46
2022-12-06T02:06:05.866Z,21.40
2022-12-06T02:08:09.799Z,21.40
2022-12-06T02:10:11.215Z,21.36
2022-12-06T02:12:12.515Z,21.34
2022-12-06T02:14:14.703Z,21.30
2022-12-06T02:16:16.053Z,21.25
2022-12-06T02:18:17.401Z,21.19
2022-12-06T02:20:18.899Z,21.14
2022-12-06T02:22:20.277Z,21.09
2022-12-06T02:24:21.568Z,21.03
2022-12-06T02:26:22.939Z,20.99
2022-12-06T02:28:24.288Z,20.93
2022-12-06T02:30:25.628Z,20.89
2022-12-06T02:32:26.930Z,20.85
2022-12-06T02:34:28.231Z,20.81
2022-12-06T02:36:29.557Z,20.77
2022-12-06T02:38:30.910Z,20.76
2022-12-06T02:40:32.208Z,20.76
2022-12-06T02:42:33.536Z,20.76
2022-12-06T02:44:34.844Z,20.80
2022-12-06T02:46:36.198Z,20.83
2022-12-06T02:48:37.544Z,20.88
2022-12-06T02:50:38.822Z,20.98
2022-12-06T02:52:40.112Z,21.07
2022-12-06T02:54:41.440Z,21.17
2022-12-06T02:56:42.748Z,21.28
2022-12-06T02:58:44.769Z,21.34
2022-12-06T03:00:46.112Z,21.42
2022-12-06T03:02:47.473Z,21.46
2022-12-06T03:04:49.863Z,21.51
2022-12-06T03:06:51.212Z,21.54
2022-12-06T03:08:52.503Z,21.60
2022-12-06T03:10:53.796Z,21.49
2022-12-06T03:12:55.280Z,21.63
2022-12-06T03:14:56.564Z,21.63
2022-12-06T03:16:57.895Z,21.65
2022-12-06T03:18:59.205Z,21.21
2022-12-06T03:21:00.526Z,21.18
2022-12-06T03:23:02.357Z,21.33
2022-12-06T03:25:03.662Z,21.38
2022-12-06T03:27:04.970Z,21.40
2022-12-06T03:29:06.283Z,21.39
2022-12-06T03:31:07.636Z,21.37
2022-12-06T03:33:08.972Z,21.35
2022-12-06T03:35:10.257Z,21.34
2022-12-06T03:37:11.548Z,21.32
2022-12-06T03:39:12.840Z,21.26
2022-12-06T03:41:14.146Z,21.29
2022-12-06T03:43:15.436Z,21.29
2022-12-06T03:45:16.773Z,21.25
2022-12-06T03:47:18.195Z,21.24
2022-12-06T03:49:19.512Z,21.18
2022-12-06T03:51:20.840Z,21.13
2022-12-06T03:53:22.168Z,21.12
2022-12-06T03:55:23.470Z,21.09
2022-12-06T03:57:24.792Z,21.03
2022-12-06T03:59:26.073Z,21.01
2022-12-06T04:01:30.368Z,20.96
2022-12-06T04:03:31.818Z,20.90
2022-12-06T04:05:33.132Z,20.82
2022-12-06T04:07:34.515Z,20.80
2022-12-06T04:10:02.575Z,20.79
2022-12-06T04:12:24.174Z,20.78
2022-12-06T04:14:32.526Z,20.81
2022-12-06T04:16:52.581Z,20.81
2022-12-06T04:18:53.860Z,20.87
2022-12-06T04:21:13.713Z,20.92
2022-12-06T04:23:14.994Z,21.00
2022-12-06T04:25:16.273Z,21.07
2022-12-06T04:27:36.197Z,21.10
2022-12-06T04:29:56.130Z,21.18
2022-12-06T04:32:16.084Z,21.24
2022-12-06T04:34:35.957Z,21.27
2022-12-06T04:36:55.789Z,21.32
2022-12-06T04:38:57.121Z,21.36
2022-12-06T04:40:58.401Z,21.44
2022-12-06T04:43:18.200Z,21.51
2022-12-06T04:45:19.523Z,21.54
2022-12-06T04:47:20.813Z,21.54
2022-12-06T04:49:22.103Z,21.54
2022-12-06T04:51:23.414Z,21.54
2022-12-06T04:53:24.748Z,21.60
2022-12-06T04:55:26.028Z,21.58
2022-12-06T04:57:27.303Z,21.57
2022-12-06T04:59:28.863Z,21.55
2022-12-06T05:01:30.184Z,21.52
2022-12-06T05:03:31.609Z,21.47
2022-12-06T05:05:32.956Z,21.45
2022-12-06T05:07:34.322Z,21.41
2022-12-06T05:09:35.680Z,21.38
2022-12-06T05:11:36.970Z,21.31
2022-12-06T05:13:38.251Z,21.25
2022-12-06T05:15:39.552Z,21.16
2022-12-06T05:17:40.829Z,21.11
2022-12-06T05:19:42.141Z,21.05
2022-12-06T05:21:43.430Z,20.99
2022-12-06T05:23:44.711Z,20.93
2022-12-06T05:25:45.993Z,20.89
2022-12-06T05:27:47.346Z,20.87
2022-12-06T05:29:48.665Z,20.83
2022-12-06T05:31:50.135Z,20.79
2022-12-06T05:33:51.469Z,20.78
2022-12-06T05:35:52.769Z,20.75
2022-12-06T05:37:54.049Z,20.75
2022-12-06T05:39:55.358Z,20.75
2022-12-06T05:41:56.633Z,20.81
2022-12-06T05:43:58.068Z,20.85
2022-12-06T05:45:59.422Z,20.91
2022-12-06T05:48:00.740Z,20.95
2022-12-06T05:50:02.256Z,21.00
2022-12-06T05:52:04.364Z,21.07
2022-12-06T05:54:06.767Z,21.15
2022-12-06T05:56:08.669Z,21.20
2022-12-06T05:58:10.048Z,21.23
2022-12-06T06:00:11.328Z,21.29
2022-12-06T06:02:12.760Z,21.33
2022-12-06T06:04:14.136Z,21.39
2022-12-06T06:06:15.415Z,21.46
2022-12-06T06:08:16.826Z,21.50
2022-12-06T06:10:18.152Z,21.57
2022-12-06T06:12:19.435Z,21.59
2022-12-06T06:14:20.928Z,21.57
2022-12-06T06:16:22.353Z,21.58
2022-12-06T06:18:23.763Z,21.57
2022-12-06T06:20:25.048Z,21.52
2022-12-06T06:22:26.372Z,21.51
2022-12-06T06:24:27.684Z,21.49
2022-12-06T06:26:29.786Z,21.49
2022-12-06T06:28:31.115Z,21.46
2022-12-06T06:30:32.389Z,21.41
2022-12-06T06:32:33.728Z,21.38
2022-12-06T06:34:35.008Z,21.36
2022-12-06T06:36:38.896Z,21.31
2022-12-06T06:38:42.408Z,21.28
2022-12-06T06:40:43.765Z,21.25
2022-12-06T06:42:45.044Z,21.19
2022-12-06T06:44:46.372Z,21.14
2022-12-06T06:46:47.687Z,21.09
2022-12-06T06:48:49.008Z,21.03
2022-12-06T06:50:55.436Z,21.00
2022-12-06T06:52:58.533Z,20.95
2022-12-06T06:54:59.856Z,20.92
2022-12-06T06:57:02.910Z,20.86
2022-12-06T06:59:04.268Z,20.85
2022-12-06T07:01:05.849Z,20.84
2022-12-06T07:03:07.211Z,20.83
2022-12-06T07:05:08.525Z,20.81
2022-12-06T07:07:11.014Z,20.82
2022-12-06T07:09:12.304Z,20.85
2022-12-06T07:11:13.580Z,20.88
2022-12-06T07:13:14.869Z,20.94
2022-12-06T07:15:16.976Z,21.02
2022-12-06T07:17:18.544Z,21.07
2022-12-06T07:19:19.877Z,21.13
2022-12-06T07:21:23.484Z,21.20
2022-12-06T07:23:24.813Z,21.25
2022-12-06T07:25:26.095Z,21.30
2022-12-06T07:27:27.428Z,21.38
2022-12-06T07:29:28.708Z,21.52
2022-12-06T07:31:30.522Z,21.51
2022-12-06T07:33:31.936Z,21.42
2022-12-06T07:36:09.854Z,21.39
2022-12-06T07:37:54.528Z,21.38
2022-12-06T07:39:55.806Z,21.38
2022-12-06T07:42:16.020Z,21.39
2022-12-06T07:44:35.690Z,21.44
2022-12-06T07:46:37.070Z,21.41
2022-12-06T07:48:38.416Z,21.40
2022-12-06T07:50:39.741Z,21.40
2022-12-06T07:52:41.071Z,21.37
2022-12-06T07:54:42.399Z,21.33
2022-12-06T07:56:44.168Z,21.31
2022-12-06T07:58:46.022Z,21.27
2022-12-06T08:00:47.361Z,21.22
2022-12-06T08:02:48.639Z,21.17
2022-12-06T08:04:50.080Z,21.15
2022-12-06T08:06:51.573Z,21.12
2022-12-06T08:08:52.857Z,21.10
2022-12-06T08:10:54.153Z,21.06
2022-12-06T08:12:55.445Z,21.00
2022-12-06T08:14:59.620Z,21.00
2022-12-06T08:17:01.393Z,21.07
2022-12-06T08:19:02.708Z,21.19
2022-12-06T08:21:04.054Z,21.10
2022-12-06T08:23:05.340Z,21.09
2022-12-06T08:25:06.639Z,20.90
2022-12-06T08:27:07.952Z,20.75
2022-12-06T08:29:09.286Z,20.67
2022-12-06T08:31:10.682Z,20.60
2022-12-06T08:33:12.040Z,20.58
2022-12-06T08:35:13.355Z,20.57
2022-12-06T08:37:14.653Z,20.57
2022-12-06T08:39:16.007Z,20.62
2022-12-06T08:41:36.024Z,20.69
2022-12-06T08:43:37.311Z,20.76
2022-12-06T08:45:38.608Z,20.84
2022-12-06T08:47:39.912Z,20.89
2022-12-06T08:49:41.211Z,19.76
2022-12-06T08:51:42.533Z,17.02
2022-12-06T08:53:43.827Z,15.95
2022-12-06T08:55:45.114Z,15.83
2022-12-06T08:57:46.420Z,15.55
2022-12-06T08:59:47.848Z,17.18
2022-12-06T09:01:49.246Z,18.88
2022-12-06T09:03:50.603Z,20.00
2022-12-06T09:05:51.903Z,20.84
2022-12-06T09:07:53.386Z,21.16
2022-12-06T09:09:54.816Z,21.15
2022-12-06T09:11:56.108Z,21.45
2022-12-06T09:13:57.419Z,21.80
2022-12-06T09:15:58.855Z,20.99
2022-12-06T09:18:00.180Z,22.32
2022-12-06T09:20:05.832Z,22.29
2022-12-06T09:22:07.527Z,22.66
2022-12-06T09:24:08.845Z,22.34
2022-12-06T09:26:10.149Z,22.25
2022-12-06T09:28:11.562Z,22.27
2022-12-06T09:30:12.858Z,22.63
2022-12-06T09:32:14.157Z,22.45
2022-12-06T09:34:15.494Z,22.46
2022-12-06T09:36:16.844Z,22.67
2022-12-06T09:38:18.137Z,22.76
2022-12-06T09:40:19.424Z,22.59
2022-12-06T09:42:20.733Z,22.68
2022-12-06T09:44:22.144Z,22.82
2022-12-06T09:46:23.581Z,22.78
2022-12-06T09:48:24.899Z,22.93
2022-12-06T09:50:26.192Z,22.60
2022-12-06T09:52:27.583Z,22.68
2022-12-06T09:54:28.916Z,22.89
2022-12-06T09:56:30.202Z,22.88
2022-12-06T09:58:31.512Z,23.10
2022-12-06T10:00:32.804Z,22.69
2022-12-06T10:02:34.139Z,22.75
2022-12-06T10:04:37.662Z,22.68
2022-12-06T10:06:39.054Z,22.70
2022-12-06T10:08:40.525Z,22.81
2022-12-06T10:10:41.937Z,22.43
2022-12-06T10:12:43.264Z,22.22
2022-12-06T10:14:44.549Z,22.14
2022-12-06T10:16:45.880Z,22.06
2022-12-06T10:18:47.379Z,21.98
2022-12-06T10:20:48.741Z,21.99
2022-12-06T10:22:50.024Z,21.94
2022-12-06T10:24:51.389Z,21.87
2022-12-06T10:26:53.749Z,21.49
2022-12-06T10:28:55.068Z,21.09
2022-12-06T10:30:56.392Z,21.20
2022-12-06T10:33:03.765Z,21.33
2022-12-06T10:35:05.380Z,21.10
2022-12-06T10:37:06.853Z,20.98
2022-12-06T10:39:08.260Z,20.93
2022-12-06T10:41:09.645Z,20.89
2022-12-06T10:43:10.927Z,20.88
2022-12-06T10:45:32.212Z,20.87
2022-12-06T10:47:33.484Z,20.90
2022-12-06T10:49:34.788Z,20.95
2022-12-06T10:51:36.084Z,21.44
2022-12-06T10:53:37.416Z,21.96
2022-12-06T10:55:38.696Z,22.35
2022-12-06T10:57:40.015Z,22.47
2022-12-06T10:59:41.309Z,22.61
2022-12-06T11:01:42.623Z,22.64
2022-12-06T11:03:44.006Z,22.62
2022-12-06T11:05:45.333Z,22.65
2022-12-06T11:07:46.665Z,22.66
2022-12-06T11:09:48.046Z,22.27
2022-12-06T11:11:49.380Z,21.98
2022-12-06T11:13:50.727Z,21.80
2022-12-06T11:15:52.036Z,21.70
2022-12-06T11:17:54.922Z,21.63
2022-12-06T11:19:59.617Z,21.55
2022-12-06T11:22:01.049Z,21.48
2022-12-06T11:24:02.369Z,21.41
2022-12-06T11:26:03.704Z,21.36
2022-12-06T11:28:05.041Z,21.30
2022-12-06T11:30:06.331Z,21.25
2022-12-06T11:32:07.869Z,21.18
2022-12-06T11:34:09.207Z,21.14
2022-12-06T11:36:10.539Z,21.12
2022-12-06T11:38:11.833Z,21.13
2022-12-06T11:40:13.125Z,21.14
2022-12-06T11:42:14.469Z,21.11
2022-12-06T11:44:15.748Z,21.09
2022-12-06T11:46:17.105Z,21.04
2022-12-06T11:48:20.811Z,21.03
2022-12-06T11:50:22.087Z,21.04
2022-12-06T11:52:23.404Z,21.02
2022-12-06T11:54:24.705Z,20.26
2022-12-06T11:56:26.679Z,21.03
2022-12-06T11:58:28.088Z,21.05
2022-12-06T12:00:31.171Z,21.05
2022-12-06T12:02:35.971Z,21.08
2022-12-06T12:04:37.333Z,21.09
2022-12-06T12:06:38.637Z,21.10
2022-12-06T12:08:39.926Z,21.11
2022-12-06T12:10:41.253Z,21.14
2022-12-06T12:13:01.081Z,21.12
2022-12-06T12:15:02.677Z,21.14
2022-12-06T12:17:04.255Z,21.21
2022-12-06T12:19:05.645Z,21.24
2022-12-06T12:21:06.987Z,21.18
2022-12-06T12:23:08.282Z,21.15
2022-12-06T12:25:24.950Z,21.11
2022-12-06T12:27:28.614Z,21.03
2022-12-06T12:29:30.115Z,21.06
2022-12-06T12:31:31.494Z,20.99
2022-12-06T12:33:33.006Z,20.98
2022-12-06T12:35:34.336Z,20.94
2022-12-06T12:37:35.617Z,20.92
2022-12-06T12:39:36.929Z,20.89
2022-12-06T12:41:38.254Z,20.83
2022-12-06T12:43:39.523Z,20.81
2022-12-06T12:45:43.908Z,20.75
2022-12-06T12:47:45.213Z,20.74
2022-12-06T12:49:46.511Z,20.73
2022-12-06T12:51:48.167Z,20.69
2022-12-06T12:53:50.327Z,20.65
2022-12-06T12:55:51.694Z,20.57
2022-12-06T12:57:53.015Z,20.49
2022-12-06T12:59:54.302Z,20.45
2022-12-06T13:01:55.747Z,20.38
2022-12-06T13:03:57.256Z,20.34
2022-12-06T13:05:58.598Z,20.30
2022-12-06T13:07:59.973Z,20.26
2022-12-06T13:10:01.337Z,20.22
2022-12-06T13:12:02.796Z,20.21
2022-12-06T13:14:04.120Z,20.20
2022-12-06T13:16:10.310Z,20.20
2022-12-06T13:18:12.133Z,20.19
2022-12-06T13:20:13.430Z,20.09
2022-12-06T13:22:14.768Z,20.20
2022-12-06T13:24:16.096Z,20.19
2022-12-06T13:26:17.426Z,20.18
2022-12-06T13:28:18.762Z,20.19
2022-12-06T13:30:20.147Z,20.19
2022-12-06T13:32:21.453Z,20.18
2022-12-06T13:34:22.801Z,20.18
2022-12-06T13:36:24.385Z,20.18
2022-12-06T13:38:26.804Z,20.17
2022-12-06T13:40:28.481Z,20.17
2022-12-06T13:42:29.768Z,20.17
2022-12-06T13:44:31.057Z,20.17
2022-12-06T13:46:32.464Z,20.18
2022-12-06T13:48:33.859Z,20.17
2022-12-06T13:50:35.160Z,20.18
2022-12-06T13:52:36.441Z,20.16
2022-12-06T13:54:37.775Z,20.16
2022-12-06T13:56:39.083Z,20.16
2022-12-06T13:58:40.368Z,20.16
2022-12-06T14:00:41.724Z,20.18
2022-12-06T14:02:43.168Z,20.16
2022-12-06T14:04:44.987Z,20.18
2022-12-06T14:06:46.365Z,20.17
2022-12-06T14:08:47.680Z,20.16
2022-12-06T14:10:48.973Z,20.16
2022-12-06T14:12:50.621Z,20.17
2022-12-06T14:14:51.921Z,20.18
2022-12-06T14:16:53.262Z,20.18
2022-12-06T14:18:54.612Z,20.19
2022-12-06T14:20:55.950Z,20.19
2022-12-06T14:22:57.249Z,20.20
2022-12-06T14:24:58.584Z,20.22
2022-12-06T14:26:59.879Z,20.24
2022-12-06T14:29:01.218Z,20.26
2022-12-06T14:31:02.552Z,20.29
2022-12-06T14:33:03.957Z,20.34
2022-12-06T14:35:05.252Z,20.37
2022-12-06T14:37:06.546Z,20.40
2022-12-06T14:39:07.881Z,20.41
2022-12-06T14:41:28.039Z,20.43
2022-12-06T14:43:29.361Z,20.43
2022-12-06T14:45:30.644Z,20.44
2022-12-06T14:47:31.959Z,20.43
2022-12-06T14:49:51.893Z,20.38
2022-12-06T14:51:53.732Z,20.38
2022-12-06T14:53:55.019Z,20.35
2022-12-06T14:55:56.344Z,20.33
2022-12-06T14:57:57.746Z,20.28
2022-12-06T15:00:18.479Z,20.25
2022-12-06T15:02:20.334Z,20.24
2022-12-06T15:04:23.744Z,20.22
2022-12-06T15:06:25.103Z,20.19
2022-12-06T15:08:26.573Z,20.17
2022-12-06T15:10:32.427Z,20.15
2022-12-06T15:12:52.466Z,20.12
2022-12-06T15:14:53.763Z,20.10
2022-12-06T15:16:55.099Z,20.08
2022-12-06T15:18:56.379Z,20.06
2022-12-06T15:20:57.690Z,20.06
2022-12-06T15:22:58.976Z,20.04
2022-12-06T15:25:00.623Z,20.03
2022-12-06T15:27:01.924Z,20.01
2022-12-06T15:29:03.256Z,20.01
2022-12-06T15:31:04.603Z,20.00
2022-12-06T15:33:05.892Z,20.01
2022-12-06T15:35:09.285Z,20.00
2022-12-06T15:37:37.701Z,20.00
2022-12-06T15:39:31.892Z,20.01
2022-12-06T15:41:33.277Z,20.00
2022-12-06T15:43:34.563Z,20.00
2022-12-06T15:45:35.861Z,20.02
2022-12-06T15:47:37.156Z,20.03
2022-12-06T15:49:39.616Z,20.05
2022-12-06T15:51:40.947Z,20.08
2022-12-06T15:53:42.584Z,20.12
2022-12-06T15:55:44.161Z,20.15
2022-12-06T15:57:45.444Z,20.19
2022-12-06T15:59:46.775Z,20.25
2022-12-06T16:01:48.118Z,20.28
2022-12-06T16:03:49.522Z,20.32
2022-12-06T16:05:50.868Z,20.35
2022-12-06T16:07:55.243Z,20.40
2022-12-06T16:09:57.261Z,20.40
2022-12-06T16:11:58.564Z,20.41
2022-12-06T16:13:59.848Z,20.40
2022-12-06T16:16:01.365Z,20.40
2022-12-06T16:18:02.710Z,20.38
2022-12-06T16:20:22.601Z,20.35
2022-12-06T16:22:43.904Z,20.31
2022-12-06T16:24:48.297Z,20.29
2022-12-06T16:26:53.715Z,20.26
2022-12-06T16:28:55.009Z,20.23
2022-12-06T16:30:56.388Z,20.21
2022-12-06T16:33:04.340Z,20.19
2022-12-06T16:35:08.768Z,20.16
2022-12-06T16:37:10.047Z,20.13
2022-12-06T16:39:11.336Z,20.11
2022-12-06T16:41:12.649Z,20.09
2022-12-06T16:43:13.944Z,20.08
2022-12-06T16:45:15.291Z,20.06
2022-12-06T16:47:16.619Z,20.05
2022-12-06T16:51:42.545Z,20.03
2022-12-06T16:53:43.829Z,20.00
2022-12-06T16:55:45.171Z,19.98
2022-12-06T16:57:46.509Z,19.94
2022-12-06T16:59:47.843Z,19.90
2022-12-06T17:01:49.146Z,19.87
2022-12-06T17:03:50.694Z,19.85
2022-12-06T17:05:52.083Z,19.79
2022-12-06T17:07:53.495Z,19.75
2022-12-06T17:09:54.906Z,19.74
2022-12-06T17:12:07.012Z,19.74
2022-12-06T17:14:08.633Z,19.77
2022-12-06T17:16:10.000Z,19.81
2022-12-06T17:18:11.328Z,19.86
2022-12-06T17:20:12.612Z,19.90
2022-12-06T17:22:15.592Z,19.98
2022-12-06T17:24:16.885Z,20.06
2022-12-06T17:26:18.184Z,20.14
2022-12-06T17:28:19.480Z,20.20
2022-12-06T17:30:22.263Z,20.24
2022-12-06T17:32:24.167Z,20.31
2022-12-06T17:34:25.891Z,20.35
2022-12-06T17:36:27.332Z,20.40
2022-12-06T17:38:31.748Z,20.43
2022-12-06T17:40:33.039Z,20.44
2022-12-06T17:42:53.268Z,20.46
2022-12-06T17:44:54.575Z,20.46
2022-12-06T17:46:56.046Z,20.46
2022-12-06T17:48:57.357Z,20.45
2022-12-06T17:50:58.680Z,20.42
2022-12-06T17:52:59.970Z,20.41
2022-12-06T17:55:01.706Z,20.36
2022-12-06T17:57:03.253Z,20.35
2022-12-06T17:59:04.565Z,20.31
2022-12-06T18:01:05.914Z,20.29
2022-12-06T18:03:07.355Z,20.26
2022-12-06T18:05:08.657Z,20.23
2022-12-06T18:07:10.062Z,20.21
2022-12-06T18:09:11.349Z,20.18
2022-12-06T18:11:12.741Z,20.16
2022-12-06T18:13:14.033Z,20.13
2022-12-06T18:15:35.277Z,20.12
2022-12-06T18:17:36.606Z,20.11
2022-12-06T18:19:38.917Z,20.09
2022-12-06T18:21:43.028Z,20.07
2022-12-06T18:24:12.774Z,20.05
2022-12-06T18:26:05.649Z,20.04
2022-12-06T18:28:06.952Z,20.01
2022-12-06T18:30:08.239Z,20.01
2022-12-06T18:32:09.762Z,20.00
2022-12-06T18:34:11.137Z,19.99
2022-12-06T18:36:12.468Z,19.99
2022-12-06T18:38:13.752Z,19.98
2022-12-06T18:40:15.130Z,19.97
2022-12-06T18:42:16.491Z,19.97
2022-12-06T18:44:17.827Z,19.97
2022-12-06T18:46:22.105Z,19.96
2022-12-06T18:48:23.610Z,19.96
2022-12-06T18:50:24.896Z,19.97
2022-12-06T18:52:27.909Z,19.98
2022-12-06T18:54:29.242Z,20.01
2022-12-06T18:56:30.529Z,20.04
2022-12-06T18:58:34.477Z,20.08
2022-12-06T19:00:35.808Z,20.14
2022-12-06T19:02:37.818Z,20.19
2022-12-06T19:04:39.197Z,20.23
2022-12-06T19:06:40.483Z,20.29
2022-12-06T19:08:43.435Z,20.33
2022-12-06T19:10:44.736Z,20.35
2022-12-06T19:12:46.065Z,20.36
2022-12-06T19:14:50.328Z,20.38
2022-12-06T19:16:54.561Z,20.38
2022-12-06T19:18:58.768Z,20.38
2022-12-06T19:21:00.068Z,20.36
2022-12-06T19:23:01.405Z,20.35
2022-12-06T19:25:02.694Z,20.32
2022-12-06T19:27:06.968Z,20.29
2022-12-06T19:29:08.612Z,20.25
2022-12-06T19:31:09.966Z,20.21
2022-12-06T19:33:11.313Z,20.18
2022-12-06T19:35:12.601Z,20.15
2022-12-06T19:37:17.797Z,20.13
2022-12-06T19:39:19.473Z,20.09
2022-12-06T19:41:20.766Z,20.08
2022-12-06T19:43:45.183Z,20.05
2022-12-06T19:45:46.950Z,20.01
2022-12-06T19:47:48.298Z,20.00
2022-12-06T19:49:55.280Z,19.97
2022-12-06T19:51:56.634Z,19.96
2022-12-06T19:53:58.336Z,19.95
2022-12-06T19:56:02.747Z,19.92
2022-12-06T19:58:04.053Z,19.91
2022-12-06T20:00:05.340Z,19.89
2022-12-06T20:02:06.743Z,19.86
2022-12-06T20:04:08.118Z,19.82
2022-12-06T20:06:11.827Z,19.77
2022-12-06T20:08:15.292Z,19.74
2022-12-06T20:10:16.593Z,19.71
2022-12-06T20:12:17.981Z,19.68
2022-12-06T20:14:19.336Z,19.66
2022-12-06T20:16:20.663Z,19.66
2022-12-06T20:18:22.032Z,19.68
2022-12-06T20:20:23.389Z,19.71
2022-12-06T20:22:24.724Z,19.77
2022-12-06T20:24:26.020Z,19.84
2022-12-06T20:26:27.300Z,19.93
2022-12-06T20:28:31.300Z,20.03
2022-12-06T20:30:34.021Z,20.11
2022-12-06T20:32:35.321Z,20.17
2022-12-06T20:34:36.674Z,20.24
2022-12-06T20:36:37.967Z,20.32
2022-12-06T20:38:39.254Z,20.38
2022-12-06T20:40:40.599Z,20.45
2022-12-06T20:42:41.931Z,20.46
2022-12-06T20:44:43.222Z,20.48
2022-12-06T20:46:44.595Z,20.49
2022-12-06T20:48:46.032Z,20.51
2022-12-06T20:50:47.336Z,20.51
2022-12-06T20:52:48.939Z,20.49
2022-12-06T20:54:50.268Z,20.49
2022-12-06T20:56:53.188Z,20.45
2022-12-06T20:58:57.356Z,20.42
2022-12-06T21:00:58.743Z,20.41
2022-12-06T21:03:00.086Z,20.37
2022-12-06T21:05:01.489Z,19.53
2022-12-06T21:07:05.628Z,20.29
2022-12-06T21:09:06.932Z,20.25
2022-12-06T21:11:22.523Z,20.22
2022-12-06T21:13:24.939Z,20.19
2022-12-06T21:15:26.224Z,20.17
2022-12-06T21:17:27.522Z,20.14
2022-12-06T21:19:28.815Z,20.12
2022-12-06T21:21:30.108Z,20.09
2022-12-06T21:23:31.400Z,20.08
2022-12-06T21:25:32.693Z,20.06
2022-12-06T21:27:34.020Z,20.03
2022-12-06T21:29:36.295Z,20.01
2022-12-06T21:31:38.284Z,19.99
2022-12-06T21:33:39.721Z,19.98
2022-12-06T21:35:41.040Z,19.98
2022-12-06T21:37:42.657Z,19.96
2022-12-06T21:39:47.233Z,19.93
2022-12-06T21:41:48.576Z,19.93
2022-12-06T21:43:50.026Z,19.92
2022-12-06T21:45:51.377Z,19.90
2022-12-06T21:47:52.693Z,19.88
2022-12-06T21:49:53.984Z,19.88
2022-12-06T21:52:02.100Z,19.86
2022-12-06T21:54:10.104Z,19.86
2022-12-06T21:56:11.436Z,19.87
2022-12-06T21:58:12.725Z,19.87
2022-12-06T22:00:15.275Z,19.88
2022-12-06T22:02:17.241Z,19.89
2022-12-06T22:04:18.673Z,19.93
2022-12-06T22:06:19.971Z,19.99
2022-12-06T22:08:21.356Z,20.04
2022-12-06T22:10:22.752Z,20.12
2022-12-06T22:12:24.306Z,20.18
2022-12-06T22:14:25.644Z,20.22
2022-12-06T22:16:27.958Z,20.28
2022-12-06T22:18:29.305Z,20.38
2022-12-06T22:20:30.590Z,21.05
2022-12-06T22:22:34.891Z,21.37
2022-12-06T22:24:36.175Z,21.53
2022-12-06T22:26:37.662Z,21.59
2022-12-06T22:28:39.108Z,21.71
2022-12-06T22:30:40.394Z,21.59
2022-12-06T22:32:41.680Z,21.68
2022-12-06T22:34:42.968Z,21.60
2022-12-06T22:36:44.280Z,21.51
2022-12-06T22:38:45.567Z,21.50
2022-12-06T22:40:46.852Z,21.54
2022-12-06T22:42:48.133Z,21.74
2022-12-06T22:44:49.477Z,21.89
2022-12-06T22:46:50.850Z,21.92
2022-12-06T22:48:52.191Z,21.80
2022-12-06T22:50:53.480Z,21.63
2022-12-06T22:52:54.760Z,21.60
2022-12-06T22:54:56.085Z,21.53
2022-12-06T22:56:57.389Z,21.55
2022-12-06T22:58:58.817Z,21.58
2022-12-06T23:01:00.186Z,21.58
2022-12-06T23:03:01.513Z,21.58
2022-12-06T23:05:02.800Z,21.67
2022-12-06T23:07:04.148Z,21.58
2022-12-06T23:09:05.489Z,21.54
2022-12-06T23:11:06.843Z,21.83
2022-12-06T23:13:08.952Z,21.64
2022-12-06T23:15:10.236Z,21.59
2022-12-06T23:17:11.579Z,21.55
2022-12-06T23:19:12.864Z,21.65
2022-12-06T23:21:14.188Z,21.79
2022-12-06T23:23:15.506Z,21.78
2022-12-06T23:25:16.792Z,21.75
2022-12-06T23:27:18.142Z,21.52
2022-12-06T23:29:19.509Z,21.21
2022-12-06T23:31:20.841Z,21.45
2022-12-06T23:33:22.966Z,21.63
2022-12-06T23:35:24.397Z,21.74
2022-12-06T23:37:25.727Z,21.81
2022-12-06T23:39:27.029Z,21.79
2022-12-06T23:41:28.472Z,21.82
2022-12-06T23:43:29.764Z,21.77
2022-12-06T23:45:31.740Z,21.72
2022-12-06T23:47:34.014Z,21.79
2022-12-06T23:49:35.360Z,21.83
2022-12-06T23:51:36.663Z,21.80
2022-12-06T23:53:38.003Z,22.02
2022-12-06T23:55:39.289Z,21.93
2022-12-06T23:57:40.610Z,21.77
2022-12-06T23:59:41.949Z,21.59
